Time;durP1;ratioP1;P1;durP2;ratioP2;P2;SDS_P1;SDS_P2;PMS_P1;PMS_P2;Temp;Humidity;BMP_temperature;BMP_pressure;BME280_temperature;BME280_humidity;BME280_pressure;Samples;Min_cycle;Max_cycle;Signal;HPM_P1;HPM_P2
2022/09/07 00:00:34;;;;;;;27.45;6.30;;;23.00;92.70;;;;;;5032969;28;20365;-64
2022/09/07 00:03:00;;;;;;;20.60;6.05;;;23.00;92.70;;;;;;5035583;28;20191;-63
2022/09/07 00:05:27;;;;;;;24.08;6.03;;;23.00;93.00;;;;;;5014065;28;20033;-64
2022/09/07 00:07:52;;;;;;;15.52;5.70;;;23.00;92.80;;;;;;5018641;28;20163;-64
2022/09/07 00:10:18;;;;;;;17.27;5.57;;;23.00;92.80;;;;;;5032260;28;20503;-64
2022/09/07 00:12:43;;;;;;;21.52;5.85;;;23.00;92.80;;;;;;5033473;28;20021;-64
2022/09/07 00:15:10;;;;;;;24.23;6.50;;;23.00;92.70;;;;;;5035140;28;20550;-64
2022/09/07 00:17:35;;;;;;;25.10;6.40;;;22.90;92.60;;;;;;5015522;28;20086;-64
2022/09/07 00:20:02;;;;;;;22.33;7.05;;;23.00;92.60;;;;;;5033101;28;20025;-64
2022/09/07 00:22:27;;;;;;;22.80;6.00;;;22.90;92.60;;;;;;5034608;28;20139;-65
2022/09/07 00:24:53;;;;;;;15.68;6.00;;;23.00;92.70;;;;;;5032741;28;20120;-64
2022/09/07 00:27:18;;;;;;;24.02;6.15;;;22.90;92.70;;;;;;5031997;28;20116;-64
2022/09/07 00:29:44;;;;;;;22.42;6.05;;;22.90;92.70;;;;;;5030360;28;20418;-64
2022/09/07 00:32:10;;;;;;;15.45;5.30;;;23.00;92.80;;;;;;5017694;28;20491;-64
2022/09/07 00:34:35;;;;;;;21.45;6.30;;;22.90;92.80;;;;;;5032531;28;20076;-65
2022/09/07 00:37:01;;;;;;;12.35;5.43;;;22.90;92.90;;;;;;5033537;28;20067;-64
2022/09/07 00:39:26;;;;;;;18.88;5.13;;;22.90;93.00;;;;;;5032546;28;20061;-65
2022/09/07 00:41:52;;;;;;;15.15;5.43;;;22.90;92.90;;;;;;5031660;28;20124;-64
2022/09/07 00:44:43;;;;;;;13.38;5.68;;;22.90;92.90;;;;;;5031675;28;20493;-65
2022/09/07 00:47:17;;;;;;;15.75;5.60;;;22.80;93.00;;;;;;5038932;28;20460;-64
2022/09/07 00:49:43;;;;;;;18.58;5.20;;;22.80;93.00;;;;;;5035512;28;20029;-64
2022/09/07 00:52:09;;;;;;;14.65;4.70;;;22.90;93.00;;;;;;5037215;28;20036;-64
2022/09/07 00:54:37;;;;;;;15.60;4.82;;;22.80;92.90;;;;;;5018596;28;20041;-64
2022/09/07 00:57:03;;;;;;;14.82;4.82;;;22.80;92.90;;;;;;5032557;28;20045;-64
2022/09/07 00:59:32;;;;;;;10.82;4.85;;;22.80;93.00;;;;;;5022412;28;20025;-64
2022/09/07 01:01:58;;;;;;;11.98;4.80;;;22.80;93.00;;;;;;5019295;28;20033;-64
2022/09/07 01:04:23;;;;;;;15.95;4.97;;;22.80;92.90;;;;;;5019250;28;20066;-64
2022/09/07 01:06:49;;;;;;;13.98;4.55;;;22.80;93.00;;;;;;5038759;28;20057;-64
2022/09/07 01:09:16;;;;;;;13.77;4.53;;;22.70;93.00;;;;;;5020668;28;20064;-64
2022/09/07 01:11:44;;;;;;;15.10;4.65;;;22.70;93.00;;;;;;5035974;28;20020;-64
2022/09/07 01:14:10;;;;;;;11.13;5.57;;;22.70;93.00;;;;;;5023978;28;20728;-64
2022/09/07 01:17:06;;;;;;;15.20;5.68;;;22.70;93.00;;;;;;5022807;28;20625;-64
2022/09/07 01:19:48;;;;;;;15.38;5.40;;;22.70;93.00;;;;;;5029453;28;20037;-64
2022/09/07 01:22:38;;;;;;;14.68;5.05;;;22.70;93.00;;;;;;5037007;28;20032;-64
2022/09/07 01:25:41;;;;;;;11.98;4.75;;;22.70;93.00;;;;;;5036950;28;20033;-63
2022/09/07 01:28:14;;;;;;;13.63;4.97;;;22.70;93.00;;;;;;5023815;28;20402;-64
2022/09/07 01:30:43;;;;;;;11.32;4.80;;;22.60;93.00;;;;;;5016157;28;20033;-64
2022/09/07 01:33:33;;;;;;;10.95;4.43;;;22.60;93.10;;;;;;5036527;28;20044;-64
2022/09/07 01:36:10;;;;;;;11.80;4.68;;;22.60;93.10;;;;;;5031389;28;20040;-63
2022/09/07 01:38:45;;;;;;;15.02;4.93;;;22.60;93.10;;;;;;5035206;28;20036;-64
2022/09/07 01:41:29;;;;;;;13.55;5.22;;;22.60;93.10;;;;;;5022190;28;20029;-63
2022/09/07 01:44:18;;;;;;;11.27;4.68;;;22.60;93.00;;;;;;5038167;28;20076;-64
2022/09/07 01:47:05;;;;;;;12.68;5.28;;;22.60;93.00;;;;;;5036898;28;20112;-63
2022/09/07 01:49:47;;;;;;;14.73;4.90;;;22.50;93.00;;;;;;5019471;28;20029;-64
2022/09/07 01:52:34;;;;;;;11.70;4.53;;;22.50;93.00;;;;;;5021170;28;20560;-64
2022/09/07 01:55:08;;;;;;;12.15;4.30;;;22.50;93.10;;;;;;5035903;28;20045;-64
2022/09/07 01:57:38;;;;;;;13.75;4.20;;;22.50;93.20;;;;;;5033301;28;20032;-64
2022/09/07 02:00:09;;;;;;;10.55;4.68;;;22.50;93.20;;;;;;5035980;28;20574;-64
2022/09/07 02:02:43;;;;;;;11.48;4.93;;;22.50;93.20;;;;;;5035873;28;20082;-64
2022/09/07 02:05:12;;;;;;;12.18;4.20;;;22.40;93.20;;;;;;5017238;28;20029;-64
2022/09/07 02:08:05;;;;;;;10.43;4.53;;;22.40;93.30;;;;;;5036472;28;20036;-64
2022/09/07 02:10:49;;;;;;;13.02;4.05;;;22.40;93.30;;;;;;5026269;28;20041;-64
2022/09/07 02:13:32;;;;;;;12.10;4.03;;;22.40;93.30;;;;;;5020418;28;20021;-64
2022/09/07 02:16:00;;;;;;;8.13;4.18;;;22.40;93.30;;;;;;5035058;28;20032;-63
2022/09/07 02:18:28;;;;;;;10.23;4.38;;;22.40;93.30;;;;;;5014490;28;20052;-64
2022/09/07 02:20:55;;;;;;;9.65;4.20;;;22.30;93.30;;;;;;5017151;28;20103;-64
2022/09/07 02:23:26;;;;;;;8.60;4.10;;;22.30;93.30;;;;;;5033802;28;20562;-64
2022/09/07 02:25:55;;;;;;;13.25;3.95;;;22.30;93.30;;;;;;5017867;28;20170;-64
2022/09/07 02:28:26;;;;;;;9.70;3.78;;;22.30;93.30;;;;;;5035636;28;20025;-63
2022/09/07 02:30:52;;;;;;;12.98;4.25;;;22.30;93.30;;;;;;5035915;28;20047;-64
2022/09/07 02:33:17;;;;;;;8.15;4.13;;;22.30;93.30;;;;;;5019296;28;20037;-64
2022/09/07 02:35:43;;;;;;;6.30;3.53;;;22.30;93.20;;;;;;5035293;28;20053;-63
2022/09/07 02:38:09;;;;;;;8.40;4.20;;;22.30;93.30;;;;;;5035571;28;20079;-64
2022/09/07 02:40:34;;;;;;;9.43;3.80;;;22.30;93.30;;;;;;5036000;28;20024;-64
2022/09/07 02:43:03;;;;;;;8.55;3.90;;;22.30;93.30;;;;;;5033793;28;20037;-64
2022/09/07 02:45:44;;;;;;;9.63;3.72;;;22.20;93.30;;;;;;5019978;28;20041;-64
2022/09/07 02:48:33;;;;;;;8.70;3.65;;;22.20;93.30;;;;;;5034284;28;20095;-64
2022/09/07 02:51:14;;;;;;;8.98;4.10;;;22.20;93.30;;;;;;5032854;28;20045;-65
2022/09/07 02:53:47;;;;;;;8.00;3.88;;;22.20;93.40;;;;;;5035443;28;20064;-67
2022/09/07 02:56:45;;;;;;;11.43;3.80;;;22.20;93.40;;;;;;5036463;28;20048;-64
2022/09/07 02:59:28;;;;;;;6.25;3.45;;;22.20;93.40;;;;;;5032612;28;20040;-64
2022/09/07 03:02:02;;;;;;;6.93;3.20;;;22.10;93.40;;;;;;5032358;28;20033;-63
2022/09/07 03:04:42;;;;;;;6.53;3.50;;;22.10;93.50;;;;;;5033560;28;20124;-64
2022/09/07 03:07:19;;;;;;;13.88;3.80;;;22.10;93.50;;;;;;5020003;28;20021;-64
2022/09/07 03:09:47;;;;;;;7.28;3.58;;;22.10;93.50;;;;;;5015884;28;20124;-66
2022/09/07 03:12:13;;;;;;;12.45;4.03;;;22.10;93.50;;;;;;5033036;28;20026;-64
2022/09/07 03:14:39;;;;;;;9.52;4.90;;;22.10;93.50;;;;;;5034330;28;20054;-64
2022/09/07 03:17:05;;;;;;;9.52;3.85;;;22.10;93.50;;;;;;5036067;28;20026;-64
2022/09/07 03:19:30;;;;;;;6.28;4.38;;;22.10;93.50;;;;;;5015633;28;20484;-64
2022/09/07 03:21:56;;;;;;;7.75;4.20;;;22.00;93.50;;;;;;5035026;28;20072;-64
2022/09/07 03:24:21;;;;;;;6.55;3.67;;;22.00;93.50;;;;;;5034076;28;20107;-64
2022/09/07 03:26:53;;;;;;;10.38;3.97;;;22.00;93.50;;;;;;5032803;28;20033;-63
2022/09/07 03:29:18;;;;;;;7.70;3.92;;;22.00;93.50;;;;;;5031644;28;20034;-64
2022/09/07 03:31:44;;;;;;;9.30;3.95;;;22.00;93.60;;;;;;5029352;28;20040;-64
2022/09/07 03:34:10;;;;;;;8.60;3.88;;;22.00;93.70;;;;;;5016220;28;20029;-64
2022/09/07 03:36:35;;;;;;;10.15;3.83;;;22.00;93.60;;;;;;5037229;28;20044;-64
2022/09/07 03:39:01;;;;;;;7.05;3.75;;;22.00;93.60;;;;;;5035645;28;20033;-64
2022/09/07 03:41:27;;;;;;;10.02;3.90;;;22.00;93.60;;;;;;5016925;28;20037;-63
2022/09/07 03:43:52;;;;;;;12.80;3.67;;;22.00;93.60;;;;;;5034091;28;20036;-65
2022/09/07 03:46:18;;;;;;;8.75;4.05;;;21.90;93.60;;;;;;5031215;28;20025;-66
2022/09/07 03:48:44;;;;;;;9.77;3.70;;;21.90;93.60;;;;;;5003266;28;20022;-64
2022/09/07 03:51:09;;;;;;;10.02;4.13;;;21.90;93.70;;;;;;5029045;28;20071;-64
2022/09/07 03:53:40;;;;;;;13.40;4.32;;;21.90;93.60;;;;;;5032211;28;20037;-64
2022/09/07 03:56:10;;;;;;;10.05;3.70;;;21.90;93.70;;;;;;5032595;28;20036;-64
2022/09/07 03:58:36;;;;;;;8.32;3.70;;;21.90;93.70;;;;;;5032755;28;20021;-64
2022/09/07 04:01:06;;;;;;;7.60;4.00;;;21.90;93.70;;;;;;5035801;28;20173;-64
2022/09/07 04:03:32;;;;;;;7.57;3.75;;;21.90;93.70;;;;;;5032969;28;20053;-65
2022/09/07 04:05:58;;;;;;;9.57;3.60;;;21.90;93.70;;;;;;5034043;28;20267;-64
2022/09/07 04:08:25;;;;;;;14.15;4.18;;;21.90;93.60;;;;;;5030479;28;20061;-64
2022/09/07 04:10:51;;;;;;;10.68;3.67;;;21.90;93.60;;;;;;5031459;28;20530;-64
2022/09/07 04:13:16;;;;;;;13.57;3.75;;;21.90;93.60;;;;;;5028845;28;20120;-64
2022/09/07 04:15:42;;;;;;;5.70;3.97;;;21.90;93.60;;;;;;5029638;28;20033;-64
2022/09/07 04:18:07;;;;;;;7.82;3.80;;;21.80;93.60;;;;;;5034359;28;20021;-64
2022/09/07 04:20:33;;;;;;;6.93;3.58;;;21.90;93.70;;;;;;5030250;28;20182;-64
2022/09/07 04:22:58;;;;;;;5.32;3.33;;;21.90;93.60;;;;;;5033957;28;20021;-64
2022/09/07 04:25:24;;;;;;;6.68;3.78;;;21.90;93.60;;;;;;5015592;28;20048;-64
2022/09/07 04:27:50;;;;;;;9.65;3.65;;;21.90;93.60;;;;;;5032963;28;20136;-63
2022/09/07 04:30:15;;;;;;;5.70;3.28;;;21.90;93.70;;;;;;5003068;28;20123;-64
2022/09/07 04:32:41;;;;;;;6.70;3.30;;;21.90;93.70;;;;;;5029359;28;20454;-64
2022/09/07 04:35:06;;;;;;;8.82;3.40;;;21.90;93.60;;;;;;5033364;28;21001;-63
2022/09/07 04:37:32;;;;;;;5.22;3.40;;;21.90;93.60;;;;;;5031178;28;20067;-64
2022/09/07 04:39:57;;;;;;;9.20;3.45;;;21.90;93.70;;;;;;5032434;28;20047;-64
2022/09/07 04:42:23;;;;;;;4.63;2.80;;;21.90;93.70;;;;;;5032877;28;20045;-64
2022/09/07 04:44:49;;;;;;;10.18;3.53;;;21.80;93.70;;;;;;5032694;28;20237;-64
2022/09/07 04:47:14;;;;;;;5.28;2.80;;;21.80;93.70;;;;;;5036724;28;20477;-64
2022/09/07 04:49:40;;;;;;;8.93;3.10;;;21.80;93.70;;;;;;5033246;28;20044;-64
2022/09/07 04:52:05;;;;;;;6.07;3.50;;;21.80;93.70;;;;;;5031920;28;20048;-64
2022/09/07 04:54:31;;;;;;;7.53;3.00;;;21.80;93.70;;;;;;5031033;28;20029;-64
2022/09/07 04:56:56;;;;;;;9.35;2.83;;;21.80;93.70;;;;;;5032343;28;20485;-64
2022/09/07 04:59:22;;;;;;;5.30;3.15;;;21.80;93.70;;;;;;5031439;28;20065;-64
2022/09/07 05:01:47;;;;;;;6.38;3.10;;;21.80;93.70;;;;;;5033551;28;20143;-64
2022/09/07 05:04:13;;;;;;;5.75;3.00;;;21.80;93.70;;;;;;5032031;28;20075;-64
2022/09/07 05:06:38;;;;;;;8.75;3.33;;;21.80;93.70;;;;;;5030354;28;20034;-64
2022/09/07 05:09:04;;;;;;;10.00;2.97;;;21.80;93.70;;;;;;5015780;28;20029;-64
2022/09/07 05:11:30;;;;;;;6.68;3.30;;;21.80;93.70;;;;;;5031435;28;20123;-64
2022/09/07 05:13:59;;;;;;;11.50;3.33;;;21.80;93.70;;;;;;5033334;28;20119;-64
2022/09/07 05:16:25;;;;;;;6.80;3.03;;;21.80;93.70;;;;;;5012049;28;20028;-65
2022/09/07 05:18:52;;;;;;;6.50;3.05;;;21.80;93.70;;;;;;5001764;28;20067;-64
2022/09/07 05:21:20;;;;;;;11.10;3.30;;;21.80;93.80;;;;;;5015224;28;20078;-64
2022/09/07 05:23:48;;;;;;;8.40;3.00;;;21.80;94.00;;;;;;5016620;28;20057;-65
2022/09/07 05:26:14;;;;;;;6.97;3.00;;;21.80;93.70;;;;;;5033747;28;20029;-64
2022/09/07 05:28:39;;;;;;;7.20;2.72;;;21.70;93.70;;;;;;5031847;28;20040;-64
2022/09/07 05:31:06;;;;;;;6.32;3.03;;;21.70;93.70;;;;;;5031995;28;20358;-64
2022/09/07 05:33:31;;;;;;;8.45;3.10;;;21.70;93.70;;;;;;5036628;28;20502;-64
2022/09/07 05:35:57;;;;;;;6.40;3.00;;;21.70;93.70;;;;;;5035262;28;20188;-64
2022/09/07 05:38:24;;;;;;;7.00;2.70;;;21.70;93.70;;;;;;5037940;28;20084;-64
2022/09/07 05:40:50;;;;;;;6.50;3.10;;;21.70;94.00;;;;;;5035848;28;20119;-64
2022/09/07 05:43:15;;;;;;;7.50;2.72;;;21.70;93.70;;;;;;5028439;28;20570;-64
2022/09/07 05:45:41;;;;;;;4.38;2.80;;;21.70;93.80;;;;;;5012678;28;20041;-64
2022/09/07 05:48:07;;;;;;;6.75;2.38;;;21.70;93.80;;;;;;5033086;28;20109;-65
2022/09/07 05:50:33;;;;;;;8.43;2.78;;;21.70;93.70;;;;;;5033718;28;20115;-64
2022/09/07 05:52:58;;;;;;;8.85;3.15;;;21.70;93.80;;;;;;5031094;28;20036;-64
2022/09/07 05:55:24;;;;;;;7.20;3.03;;;21.70;93.80;;;;;;5009195;28;20421;-64
2022/09/07 05:57:49;;;;;;;7.35;3.03;;;21.60;93.80;;;;;;5023365;28;20041;-64
2022/09/07 06:00:15;;;;;;;7.38;2.90;;;21.70;93.80;;;;;;5024547;28;20034;-63
2022/09/07 06:02:41;;;;;;;6.72;2.75;;;21.60;93.80;;;;;;5026854;28;20104;-63
2022/09/07 06:05:07;;;;;;;5.45;2.95;;;21.60;93.80;;;;;;5031290;28;20074;-64
2022/09/07 06:07:32;;;;;;;10.65;3.30;;;21.60;93.90;;;;;;5012036;28;20736;-64
2022/09/07 06:09:58;;;;;;;6.47;2.78;;;21.60;94.00;;;;;;5023023;28;20060;-64
2022/09/07 06:12:23;;;;;;;10.23;3.28;;;21.60;94.10;;;;;;5030039;28;20048;-64
2022/09/07 06:14:49;;;;;;;8.20;3.03;;;21.50;94.20;;;;;;5029351;28;20061;-64
2022/09/07 06:17:14;;;;;;;7.88;3.72;;;21.50;94.40;;;;;;5026798;28;20108;-64
2022/09/07 06:19:40;;;;;;;8.82;3.22;;;21.50;94.50;;;;;;5029654;28;20673;-64
2022/09/07 06:22:05;;;;;;;10.57;3.05;;;21.50;94.60;;;;;;5032293;28;20043;-63
2022/09/07 06:24:31;;;;;;;9.80;3.08;;;21.40;94.70;;;;;;5037948;28;20036;-63
2022/09/07 06:26:56;;;;;;;9.77;3.10;;;21.40;94.90;;;;;;5016658;28;20066;-65
2022/09/07 06:29:22;;;;;;;8.27;3.00;;;21.30;95.00;;;;;;5028595;28;20069;-64
2022/09/07 06:31:48;;;;;;;8.02;2.90;;;21.30;95.10;;;;;;5034556;28;20072;-64
2022/09/07 06:34:13;;;;;;;15.02;3.00;;;21.30;95.10;;;;;;5024411;28;20116;-64
2022/09/07 06:36:39;;;;;;;6.05;2.60;;;21.30;95.10;;;;;;5029338;28;20076;-64
2022/09/07 06:39:04;;;;;;;11.38;3.22;;;21.40;95.10;;;;;;5032366;28;20067;-64
2022/09/07 06:41:30;;;;;;;8.27;2.40;;;21.30;95.00;;;;;;5032458;28;20112;-64
2022/09/07 06:43:56;;;;;;;5.43;2.70;;;21.40;95.00;;;;;;5020919;28;20048;-63
2022/09/07 06:46:22;;;;;;;6.18;2.47;;;21.40;95.00;;;;;;5003413;28;20040;-64
2022/09/07 06:48:50;;;;;;;9.77;2.80;;;21.40;94.90;;;;;;5032520;28;20118;-63
2022/09/07 06:51:18;;;;;;;7.70;2.80;;;21.40;94.90;;;;;;5028864;28;20117;-64
2022/09/07 06:53:44;;;;;;;13.10;3.05;;;21.50;95.00;;;;;;5009254;28;20037;-64
2022/09/07 06:56:14;;;;;;;7.38;2.70;;;21.50;95.10;;;;;;5013982;28;20095;-64
2022/09/07 06:58:39;;;;;;;8.95;2.92;;;21.50;95.20;;;;;;5016987;28;20017;-64
2022/09/07 07:01:09;;;;;;;15.43;3.05;;;21.40;95.20;;;;;;5024977;28;20568;-64
2022/09/07 07:03:35;;;;;;;14.77;3.00;;;21.40;95.40;;;;;;5028751;28;20033;-64
2022/09/07 07:06:01;;;;;;;26.92;4.28;;;21.40;95.50;;;;;;5026289;28;20048;-65
2022/09/07 07:08:26;;;;;;;18.33;3.83;;;21.40;95.70;;;;;;5028166;28;20116;-64
2022/09/07 07:10:52;;;;;;;16.67;4.05;;;21.40;95.70;;;;;;5026747;28;20469;-64
2022/09/07 07:13:18;;;;;;;29.23;3.88;;;21.40;95.90;;;;;;5027602;28;20135;-64
2022/09/07 07:15:44;;;;;;;28.20;4.00;;;21.40;95.90;;;;;;5022968;28;20067;-64
2022/09/07 07:18:10;;;;;;;16.75;3.72;;;21.40;95.90;;;;;;5013759;28;20876;-64
2022/09/07 07:20:39;;;;;;;20.55;3.88;;;21.50;95.70;;;;;;5025884;28;20051;-64
2022/09/07 07:23:05;;;;;;;18.40;4.15;;;21.50;95.50;;;;;;5018375;28;20457;-64
2022/09/07 07:25:35;;;;;;;18.50;4.05;;;21.60;95.40;;;;;;5024772;28;20029;-64
2022/09/07 07:28:01;;;;;;;36.35;6.38;;;21.50;95.30;;;;;;5026798;28;20034;-65
2022/09/07 07:30:26;;;;;;;42.58;5.25;;;21.50;95.20;;;;;;5010047;28;20116;-65
2022/09/07 07:32:52;;;;;;;43.35;6.00;;;21.60;95.40;;;;;;5029630;28;20411;-65
2022/09/07 07:35:17;;;;;;;30.85;4.68;;;21.60;95.40;;;;;;5023410;28;20447;-64
2022/09/07 07:37:43;;;;;;;50.75;5.63;;;21.60;95.60;;;;;;5032598;28;20369;-65
2022/09/07 07:40:09;;;;;;;28.98;4.95;;;21.70;95.40;;;;;;5006758;28;20514;-65
2022/09/07 07:42:37;;;;;;;25.30;4.72;;;21.70;95.50;;;;;;5031855;28;20095;-65
2022/09/07 07:45:03;;;;;;;38.85;5.10;;;21.70;95.70;;;;;;5026816;28;20105;-64
2022/09/07 07:47:29;;;;;;;39.33;5.28;;;21.70;95.60;;;;;;5013208;28;20040;-65
2022/09/07 07:49:54;;;;;;;51.05;6.80;;;21.70;95.70;;;;;;5011321;28;20037;-65
2022/09/07 07:52:20;;;;;;;37.58;6.28;;;21.70;95.80;;;;;;5023794;28;20082;-65
2022/09/07 07:54:45;;;;;;;42.25;5.95;;;21.70;95.50;;;;;;5027675;28;20743;-65
2022/09/07 07:57:11;;;;;;;45.53;6.72;;;21.80;95.80;;;;;;5009280;28;20091;-66
2022/09/07 07:59:37;;;;;;;38.80;5.68;;;21.80;95.50;;;;;;5033316;28;20029;-65
2022/09/07 08:02:03;;;;;;;31.20;5.38;;;21.80;95.30;;;;;;5002334;28;20067;-65
2022/09/07 08:04:30;;;;;;;65.03;7.25;;;21.90;95.30;;;;;;5022923;28;20498;-65
2022/09/07 08:06:56;;;;;;;52.92;6.38;;;21.90;95.20;;;;;;5003653;28;20033;-65
2022/09/07 08:09:22;;;;;;;56.75;8.13;;;21.90;95.40;;;;;;5016119;28;20115;-65
2022/09/07 08:11:47;;;;;;;68.68;9.15;;;21.90;95.40;;;;;;5020431;28;20030;-65
2022/09/07 08:14:13;;;;;;;109.97;12.18;;;22.00;95.40;;;;;;5021638;28;20025;-65
2022/09/07 08:16:41;;;;;;;113.85;12.77;;;22.00;95.40;;;;;;5019114;28;20092;-65
2022/09/07 08:19:06;;;;;;;126.88;13.30;;;22.00;95.40;;;;;;5025271;28;20056;-64
2022/09/07 08:21:32;;;;;;;153.43;15.52;;;22.00;95.40;;;;;;5024668;28;20204;-65
2022/09/07 08:23:58;;;;;;;146.13;16.38;;;22.20;95.60;;;;;;5014054;28;20445;-65
2022/09/07 08:26:24;;;;;;;157.70;17.33;;;22.10;95.50;;;;;;5022053;28;20463;-65
2022/09/07 08:28:50;;;;;;;217.25;21.00;;;22.10;95.40;;;;;;5012596;28;20033;-65
2022/09/07 08:31:15;;;;;;;137.82;17.70;;;22.20;95.40;;;;;;5023684;28;20094;-65
2022/09/07 08:33:41;;;;;;;226.80;22.05;;;22.20;95.30;;;;;;5004471;28;20539;-65
2022/09/07 08:36:09;;;;;;;188.55;20.98;;;22.20;95.20;;;;;;5012762;28;20055;-65
2022/09/07 08:38:35;;;;;;;255.85;23.45;;;22.20;95.20;;;;;;5022782;28;20350;-66
2022/09/07 08:41:01;;;;;;;336.92;36.10;;;22.20;95.00;;;;;;5026866;28;20076;-65
2022/09/07 08:43:28;;;;;;;282.77;26.73;;;22.30;95.00;;;;;;5026399;28;20421;-65
2022/09/07 08:45:56;;;;;;;259.83;25.67;;;22.30;94.90;;;;;;5025906;28;20032;-65
2022/09/07 08:48:27;;;;;;;201.27;20.58;;;22.30;94.80;;;;;;5022317;28;20045;-65
2022/09/07 08:50:57;;;;;;;186.52;21.48;;;22.30;94.70;;;;;;5030771;28;20036;-65
2022/09/07 08:53:23;;;;;;;181.95;19.65;;;22.40;94.60;;;;;;5027233;28;20464;-65
2022/09/07 08:56:01;;;;;;;192.73;19.95;;;22.40;94.50;;;;;;5006345;28;20756;-64
2022/09/07 08:58:43;;;;;;;174.70;18.65;;;22.40;94.40;;;;;;5012522;28;20035;-65
2022/09/07 09:01:35;;;;;;;225.20;22.63;;;22.40;94.30;;;;;;5030216;28;20674;-65
2022/09/07 09:04:00;;;;;;;177.23;18.10;;;22.40;94.30;;;;;;5021427;28;20116;-65
2022/09/07 09:06:47;;;;;;;168.50;19.13;;;22.40;94.30;;;;;;5029537;28;20045;-64
2022/09/07 09:09:38;;;;;;;163.80;17.75;;;22.40;94.30;;;;;;5028587;28;20029;-65
2022/09/07 09:12:28;;;;;;;189.02;19.58;;;22.40;94.20;;;;;;5024657;28;20120;-65
2022/09/07 09:15:06;;;;;;;147.50;16.83;;;22.50;94.20;;;;;;5023150;28;20091;-64
2022/09/07 09:17:42;;;;;;;139.73;18.20;;;22.60;94.20;;;;;;5016515;28;20029;-65
2022/09/07 09:20:17;;;;;;;123.05;14.70;;;22.50;94.10;;;;;;5034182;28;20120;-65
2022/09/07 09:22:42;;;;;;;126.35;14.85;;;22.60;93.90;;;;;;5033343;28;20028;-65
2022/09/07 09:25:20;;;;;;;124.50;15.60;;;22.60;93.80;;;;;;5021237;28;20029;-65
2022/09/07 09:27:47;;;;;;;199.65;18.70;;;22.60;93.80;;;;;;5039161;28;20412;-65
2022/09/07 09:30:15;;;;;;;117.03;13.75;;;22.60;93.70;;;;;;5036648;28;20030;-65
2022/09/07 09:32:45;;;;;;;129.70;13.98;;;22.70;93.70;;;;;;5021496;28;20052;-65
2022/09/07 09:35:22;;;;;;;126.32;14.35;;;22.70;93.70;;;;;;5032996;28;20029;-65
2022/09/07 09:37:48;;;;;;;117.25;13.88;;;22.70;93.70;;;;;;5033258;28;20028;-66
2022/09/07 09:40:22;;;;;;;144.57;15.48;;;22.80;93.70;;;;;;5034156;28;20439;-65
2022/09/07 09:42:48;;;;;;;146.60;15.20;;;22.80;93.50;;;;;;5028134;28;20021;-65
2022/09/07 09:45:20;;;;;;;128.52;13.50;;;22.80;93.50;;;;;;5031925;28;20070;-65
2022/09/07 09:47:49;;;;;;;96.30;11.95;;;22.80;93.40;;;;;;5028920;28;20033;-65
2022/09/07 09:50:31;;;;;;;146.90;13.60;;;22.90;93.30;;;;;;5029127;28;20594;-65
2022/09/07 09:52:56;;;;;;;133.63;14.32;;;22.90;93.20;;;;;;5019388;28;20041;-65
2022/09/07 09:55:30;;;;;;;128.32;13.75;;;23.00;93.10;;;;;;5037694;28;20174;-65
2022/09/07 09:58:00;;;;;;;116.70;13.30;;;23.00;93.00;;;;;;5032858;28;20030;-68
2022/09/07 10:00:27;;;;;;;100.20;11.98;;;23.00;92.90;;;;;;5019026;28;20032;-65
2022/09/07 10:03:01;;;;;;;73.05;10.30;;;23.10;92.90;;;;;;5019439;28;20452;-65
2022/09/07 10:05:38;;;;;;;85.85;11.30;;;23.00;92.80;;;;;;5034479;28;20060;-65
2022/09/07 10:08:35;;;;;;;96.40;11.35;;;23.10;92.80;;;;;;5024109;28;20389;-64
2022/09/07 10:11:03;;;;;;;87.45;10.20;;;23.10;92.70;;;;;;5037092;28;20120;-65
2022/09/07 10:13:34;;;;;;;75.43;9.20;;;23.20;92.70;;;;;;5033975;28;20071;-65
2022/09/07 10:16:02;;;;;;;72.00;8.77;;;23.10;92.60;;;;;;5016209;28;20504;-65
2022/09/07 10:18:33;;;;;;;60.88;7.95;;;23.20;92.50;;;;;;5017262;28;20558;-65
2022/09/07 10:21:21;;;;;;;78.97;9.70;;;23.20;92.50;;;;;;5019659;28;20021;-65
2022/09/07 10:23:49;;;;;;;77.78;9.82;;;23.20;92.40;;;;;;5024504;28;20030;-65
2022/09/07 10:26:32;;;;;;;89.63;10.57;;;23.20;92.40;;;;;;4992234;28;20849;-64
2022/09/07 10:29:12;;;;;;;67.30;8.10;;;23.30;92.40;;;;;;5006490;28;20064;-65
2022/09/07 10:32:08;;;;;;;70.20;10.05;;;23.30;92.30;;;;;;5012737;28;20029;-65
2022/09/07 10:35:02;;;;;;;64.13;9.48;;;23.40;92.30;;;;;;5032618;28;20037;-65
2022/09/07 10:37:48;;;;;;;67.78;8.95;;;23.40;92.20;;;;;;5031123;28;20041;-65
2022/09/07 10:40:34;;;;;;;65.72;9.30;;;23.40;92.10;;;;;;5031143;28;20045;-65
2022/09/07 10:43:22;;;;;;;80.25;10.68;;;23.50;92.00;;;;;;5032853;28;20025;-66
2022/09/07 10:45:58;;;;;;;65.68;8.73;;;23.50;91.90;;;;;;5013391;28;20060;-64
2022/09/07 10:48:42;;;;;;;50.40;7.47;;;23.50;91.60;;;;;;5014354;28;20641;-64
2022/09/07 10:51:35;;;;;;;85.50;10.80;;;23.60;91.50;;;;;;5036187;28;20619;-64
2022/09/07 10:54:22;;;;;;;69.68;8.85;;;23.60;91.30;;;;;;5026955;28;20073;-64
2022/09/07 10:56:57;;;;;;;62.75;9.00;;;23.70;91.30;;;;;;5033418;28;20048;-64
2022/09/07 10:59:46;;;;;;;62.20;8.38;;;23.80;91.20;;;;;;5028758;28;20021;-64
2022/09/07 11:02:47;;;;;;;67.88;9.15;;;23.80;90.90;;;;;;5010651;28;20060;-65
2022/09/07 11:05:45;;;;;;;77.22;9.77;;;23.80;90.70;;;;;;5012082;28;20045;-64
2022/09/07 11:08:59;;;;;;;65.53;9.40;;;23.90;90.60;;;;;;4998926;28;20021;-64
2022/09/07 11:11:25;;;;;;;86.10;9.68;;;24.00;90.40;;;;;;4999956;28;20393;-64
2022/09/07 11:13:53;;;;;;;86.60;10.60;;;24.00;90.30;;;;;;5017054;28;20123;-65
2022/09/07 11:16:31;;;;;;;97.88;12.13;;;24.10;90.10;;;;;;5016001;28;20504;-64
2022/09/07 11:19:05;;;;;;;89.72;11.60;;;24.20;90.00;;;;;;5009745;28;20033;-65
2022/09/07 11:21:55;;;;;;;88.37;10.47;;;24.30;89.40;;;;;;5023949;28;20029;-63
2022/09/07 11:24:29;;;;;;;68.78;9.30;;;24.40;89.00;;;;;;5019991;28;20467;-65
2022/09/07 11:27:01;;;;;;;51.17;9.23;;;24.40;88.40;;;;;;5022858;28;20502;-65
2022/09/07 11:29:44;;;;;;;73.25;9.10;;;24.40;88.30;;;;;;5026118;28;20029;-65
2022/09/07 11:32:26;;;;;;;50.65;8.27;;;24.40;88.00;;;;;;5022451;28;20398;-64
2022/09/07 11:35:17;;;;;;;73.50;10.57;;;24.50;87.60;;;;;;5023182;28;20546;-64
2022/09/07 11:37:54;;;;;;;67.78;9.00;;;24.60;87.40;;;;;;5021367;28;20116;-65
2022/09/07 11:40:41;;;;;;;59.60;9.65;;;24.60;86.80;;;;;;5023844;28;20027;-64
2022/09/07 11:43:18;;;;;;;66.13;8.60;;;24.60;86.30;;;;;;5021588;28;20040;-64
2022/09/07 11:45:47;;;;;;;63.88;9.07;;;24.70;86.30;;;;;;5014478;28;20053;-64
2022/09/07 11:48:27;;;;;;;54.53;9.38;;;24.70;85.90;;;;;;5026776;28;20772;-64
2022/09/07 11:50:56;;;;;;;58.78;8.20;;;24.80;86.30;;;;;;5029017;28;20028;-64
2022/09/07 11:53:33;;;;;;;83.53;9.55;;;24.80;85.40;;;;;;5033245;28;20056;-64
2022/09/07 11:56:10;;;;;;;82.30;10.07;;;24.90;85.20;;;;;;5035574;28;20039;-65
2022/09/07 11:59:14;;;;;;;66.30;11.05;;;24.90;84.80;;;;;;5016223;28;20056;-64
2022/09/07 12:01:53;;;;;;;79.63;10.45;;;24.90;84.40;;;;;;4972656;28;20030;-64
2022/09/07 12:04:41;;;;;;;83.30;10.57;;;25.00;84.20;;;;;;4925420;28;20429;-64
2022/09/07 12:07:19;;;;;;;77.13;9.55;;;25.10;84.00;;;;;;5008282;28;20053;-64
2022/09/07 12:10:00;;;;;;;95.10;9.90;;;25.10;83.50;;;;;;5029437;28;20065;-64
2022/09/07 12:13:03;;;;;;;64.47;8.95;;;25.20;83.70;;;;;;5028790;28;20110;-65
2022/09/07 12:15:43;;;;;;;104.28;14.10;;;25.30;83.40;;;;;;5028707;28;20144;-64
2022/09/07 12:18:18;;;;;;;102.70;12.30;;;25.30;83.10;;;;;;5022405;28;20116;-65
2022/09/07 12:20:44;;;;;;;63.35;9.27;;;25.30;83.20;;;;;;5011408;28;20802;-64
2022/09/07 12:23:16;;;;;;;55.03;8.73;;;25.40;82.90;;;;;;5029812;28;20045;-64
2022/09/07 12:25:48;;;;;;;73.25;9.32;;;25.40;82.90;;;;;;5025871;28;20212;-64
2022/09/07 12:28:34;;;;;;;76.55;9.80;;;25.50;82.80;;;;;;4996411;28;20480;-64
2022/09/07 12:31:00;;;;;;;78.43;9.82;;;25.50;81.60;;;;;;5030187;28;20041;-64
2022/09/07 12:33:36;;;;;;;69.85;10.15;;;25.60;81.60;;;;;;5026402;28;20017;-65
2022/09/07 12:36:22;;;;;;;89.00;12.07;;;25.60;82.20;;;;;;5025142;28;20017;-65
2022/09/07 12:39:19;;;;;;;86.90;10.70;;;25.70;81.00;;;;;;5028357;28;20033;-64
2022/09/07 12:41:47;;;;;;;85.43;9.93;;;25.80;81.00;;;;;;5026933;28;20520;-65
2022/09/07 12:44:17;;;;;;;78.55;9.20;;;25.80;80.60;;;;;;5010856;28;20049;-65
2022/09/07 12:46:44;;;;;;;77.25;9.40;;;25.80;79.80;;;;;;5010827;28;20138;-65
2022/09/07 12:49:19;;;;;;;70.82;10.30;;;25.90;79.70;;;;;;5024975;28;20099;-65
2022/09/07 12:51:55;;;;;;;81.40;11.73;;;26.00;79.90;;;;;;5029285;28;20034;-65
2022/09/07 12:54:34;;;;;;;74.85;9.85;;;26.00;79.70;;;;;;5023871;28;20021;-64
2022/09/07 12:57:15;;;;;;;80.60;9.20;;;26.10;79.10;;;;;;5007498;28;20155;-64